Time;durP1;ratioP1;P1;durP2;ratioP2;P2;SDS_P1;SDS_P2;PMS_P1;PMS_P2;Temp;Humidity;BMP_temperature;BMP_pressure;BME280_temperature;BME280_humidity;BME280_pressure;Samples;Min_cycle;Max_cycle;Signal;HPM_P1;HPM_P2
2022/10/17 00:02:03;;;;;;;11.98;6.25;;;16.20;99.90;;;;;;5073586;28;20119;-69
2022/10/17 00:04:29;;;;;;;11.88;6.10;;;16.10;99.90;;;;;;5073807;28;20029;-69
2022/10/17 00:06:55;;;;;;;12.10;6.88;;;16.10;99.90;;;;;;5073657;28;20035;-69
2022/10/17 00:09:20;;;;;;;9.55;6.68;;;16.10;99.90;;;;;;5073535;28;20394;-69
2022/10/17 00:11:46;;;;;;;10.18;7.30;;;16.10;99.90;;;;;;5072210;28;20086;-70
2022/10/17 00:14:12;;;;;;;11.93;7.43;;;16.10;99.90;;;;;;5073641;28;20031;-68
2022/10/17 00:16:38;;;;;;;11.00;7.70;;;16.10;99.90;;;;;;5055408;28;20040;-68
2022/10/17 00:19:05;;;;;;;14.88;7.28;;;16.10;99.90;;;;;;5056074;28;20020;-68
2022/10/17 00:21:32;;;;;;;10.93;8.25;;;16.10;99.90;;;;;;5073245;28;20438;-70
2022/10/17 00:23:59;;;;;;;9.85;8.05;;;16.00;99.90;;;;;;5073571;28;20035;-68
2022/10/17 00:26:24;;;;;;;16.88;8.18;;;16.00;99.90;;;;;;5073089;28;20040;-69
2022/10/17 00:28:51;;;;;;;12.13;8.75;;;16.00;99.90;;;;;;5073126;28;20025;-68
2022/10/17 00:31:19;;;;;;;14.48;10.10;;;16.00;99.90;;;;;;5072762;28;20029;-69
2022/10/17 00:33:45;;;;;;;17.50;9.38;;;16.00;99.90;;;;;;5055292;28;20759;-69
2022/10/17 00:36:14;;;;;;;12.35;9.52;;;16.00;99.90;;;;;;5073248;28;20082;-68
2022/10/17 00:38:42;;;;;;;14.77;9.95;;;16.00;99.90;;;;;;5055283;28;20044;-68
2022/10/17 00:41:09;;;;;;;16.75;10.65;;;16.00;99.90;;;;;;5073089;28;20029;-68
2022/10/17 00:43:56;;;;;;;13.25;10.50;;;16.00;99.90;;;;;;5038562;28;20028;-68
2022/10/17 00:46:25;;;;;;;17.95;11.50;;;15.90;99.90;;;;;;5054736;28;20074;-68
2022/10/17 00:48:53;;;;;;;19.63;12.18;;;15.80;99.90;;;;;;5072913;28;20432;-68
2022/10/17 00:51:26;;;;;;;17.05;11.32;;;15.90;99.90;;;;;;5054985;28;20027;-68
2022/10/17 00:53:52;;;;;;;21.05;12.30;;;15.80;99.90;;;;;;5072535;28;20107;-68
2022/10/17 00:56:20;;;;;;;16.10;12.63;;;15.80;99.90;;;;;;5054952;28;20020;-68
2022/10/17 00:58:46;;;;;;;17.65;13.63;;;15.80;99.90;;;;;;5054628;28;20028;-68
2022/10/17 01:01:13;;;;;;;18.13;13.20;;;15.90;99.90;;;;;;5054456;28;20033;-68
2022/10/17 01:03:39;;;;;;;20.10;14.25;;;15.90;99.90;;;;;;5054793;28;20363;-68
2022/10/17 01:06:05;;;;;;;23.13;14.85;;;15.90;99.90;;;;;;5054888;28;20034;-68
2022/10/17 01:08:31;;;;;;;19.08;14.65;;;15.90;99.90;;;;;;5072859;28;20017;-68
2022/10/17 01:11:21;;;;;;;18.80;15.43;;;15.90;99.90;;;;;;5058715;28;20017;-68
2022/10/17 01:14:16;;;;;;;25.05;14.68;;;15.80;99.90;;;;;;5054924;28;20479;-68
2022/10/17 01:17:07;;;;;;;25.00;15.63;;;15.90;99.90;;;;;;5032580;28;20064;-68
2022/10/17 01:20:08;;;;;;;25.57;15.80;;;15.90;99.90;;;;;;5035645;28;20481;-68
2022/10/17 01:22:46;;;;;;;18.00;15.27;;;15.90;99.90;;;;;;5051519;28;20032;-68
2022/10/17 01:26:00;;;;;;;23.75;13.93;;;15.90;99.90;;;;;;5054304;28;20111;-68
2022/10/17 01:28:44;;;;;;;21.88;12.23;;;15.90;99.90;;;;;;4984428;28;20050;-68
2022/10/17 01:31:13;;;;;;;26.27;13.82;;;15.90;99.90;;;;;;5071962;28;20055;-68
2022/10/17 01:34:00;;;;;;;25.98;14.05;;;15.80;99.90;;;;;;5054697;28;20506;-68
2022/10/17 01:36:35;;;;;;;20.88;13.43;;;15.80;99.90;;;;;;5054195;28;20021;-68
2022/10/17 01:39:14;;;;;;;16.63;12.27;;;15.90;99.90;;;;;;5054451;28;20526;-68
2022/10/17 01:42:09;;;;;;;18.48;12.48;;;15.90;99.90;;;;;;5054415;28;20028;-68
2022/10/17 01:44:43;;;;;;;17.85;10.95;;;15.80;99.90;;;;;;5071978;28;20373;-68
2022/10/17 01:47:14;;;;;;;14.82;10.73;;;15.80;99.90;;;;;;5054303;28;20021;-68
2022/10/17 01:49:42;;;;;;;12.90;9.98;;;15.90;99.90;;;;;;5054394;28;20032;-68
2022/10/17 01:52:23;;;;;;;14.77;9.25;;;15.90;99.90;;;;;;5037873;28;20017;-68
2022/10/17 01:55:03;;;;;;;12.15;9.18;;;16.00;99.90;;;;;;5054169;28;20037;-68
2022/10/17 01:57:44;;;;;;;18.10;8.13;;;15.90;99.90;;;;;;5054216;28;20075;-68
2022/10/17 02:00:16;;;;;;;12.48;8.20;;;16.00;99.90;;;;;;5054006;28;20025;-68
2022/10/17 02:02:45;;;;;;;14.13;8.18;;;15.90;99.90;;;;;;5072277;28;20037;-68
2022/10/17 02:05:11;;;;;;;10.25;7.57;;;15.90;99.90;;;;;;5055402;28;20488;-68
2022/10/17 02:07:39;;;;;;;12.23;8.00;;;15.90;99.90;;;;;;5057996;28;20492;-68
2022/10/17 02:10:14;;;;;;;15.95;7.28;;;16.00;99.90;;;;;;5075979;28;20051;-69
2022/10/17 02:13:09;;;;;;;13.07;8.38;;;16.00;99.90;;;;;;5057631;28;20020;-69
2022/10/17 02:15:44;;;;;;;12.30;8.00;;;16.00;99.90;;;;;;5075657;28;20028;-68
2022/10/17 02:18:36;;;;;;;19.60;8.77;;;15.90;99.90;;;;;;5057763;28;20024;-72
2022/10/17 02:21:30;;;;;;;14.93;8.40;;;15.90;99.90;;;;;;5058482;28;20524;-69
2022/10/17 02:24:32;;;;;;;13.73;8.50;;;16.00;99.90;;;;;;5075809;28;20031;-70
2022/10/17 02:27:04;;;;;;;15.07;8.50;;;16.00;99.90;;;;;;5029659;28;20044;-72
2022/10/17 02:29:38;;;;;;;22.15;7.85;;;16.00;99.90;;;;;;5057562;28;20348;-68
2022/10/17 02:32:07;;;;;;;12.52;8.32;;;16.00;99.90;;;;;;5075723;28;20029;-68
2022/10/17 02:34:41;;;;;;;12.20;7.82;;;16.00;99.90;;;;;;5041193;28;20211;-68
2022/10/17 02:37:10;;;;;;;14.18;8.00;;;16.00;99.90;;;;;;5057562;28;20039;-68
2022/10/17 02:39:39;;;;;;;12.18;7.90;;;16.10;99.90;;;;;;5057337;28;20809;-68
2022/10/17 02:42:08;;;;;;;18.05;8.30;;;16.10;99.90;;;;;;5057478;28;20055;-68
2022/10/17 02:44:38;;;;;;;13.13;8.43;;;16.20;99.90;;;;;;5057093;28;20052;-68
2022/10/17 02:48:01;;;;;;;12.13;7.65;;;16.20;99.90;;;;;;5057388;28;20028;-68
2022/10/17 02:50:39;;;;;;;12.27;8.20;;;16.20;99.90;;;;;;4977651;28;20038;-69
2022/10/17 02:53:10;;;;;;;13.07;7.57;;;16.20;99.90;;;;;;4977315;28;20038;-68
2022/10/17 02:55:43;;;;;;;13.27;7.65;;;16.30;99.90;;;;;;5034334;28;20036;-68
2022/10/17 02:58:37;;;;;;;11.55;8.30;;;16.30;99.90;;;;;;5074827;28;20040;-68
2022/10/17 03:01:04;;;;;;;11.15;7.93;;;16.30;99.90;;;;;;5053761;28;20047;-69
2022/10/17 03:03:31;;;;;;;14.02;8.20;;;16.30;99.90;;;;;;5056990;28;20031;-68
2022/10/17 03:06:00;;;;;;;17.85;8.55;;;16.40;99.90;;;;;;5056909;28;20028;-69
2022/10/17 03:08:26;;;;;;;18.65;8.65;;;16.30;99.90;;;;;;5057035;28;20039;-69
2022/10/17 03:10:52;;;;;;;16.85;8.48;;;16.30;99.90;;;;;;5056642;28;20024;-68
2022/10/17 03:13:18;;;;;;;11.73;7.78;;;16.40;99.90;;;;;;5056647;28;20102;-68
2022/10/17 03:15:45;;;;;;;17.23;8.45;;;16.40;99.90;;;;;;5056629;28;20477;-69
2022/10/17 03:18:11;;;;;;;10.25;7.63;;;16.40;99.90;;;;;;5056862;28;20020;-69
2022/10/17 03:20:37;;;;;;;16.25;7.47;;;16.40;99.90;;;;;;5056275;28;20099;-69
2022/10/17 03:23:03;;;;;;;10.98;7.82;;;16.50;99.90;;;;;;5056610;28;20052;-69
2022/10/17 03:25:29;;;;;;;10.90;7.55;;;16.50;99.90;;;;;;5074046;28;20149;-70
2022/10/17 03:28:00;;;;;;;15.18;8.13;;;16.50;99.90;;;;;;5056509;28;20037;-69
2022/10/17 03:30:27;;;;;;;21.48;8.43;;;16.50;99.90;;;;;;5056661;28;20031;-69
2022/10/17 03:32:53;;;;;;;12.90;8.63;;;16.60;99.90;;;;;;5056572;28;20032;-69
2022/10/17 03:35:19;;;;;;;17.92;7.38;;;16.50;99.90;;;;;;5056580;28;20111;-69
2022/10/17 03:37:48;;;;;;;17.23;7.88;;;16.60;99.90;;;;;;5056290;28;20035;-68
2022/10/17 03:40:15;;;;;;;12.98;7.93;;;16.60;99.90;;;;;;5056141;28;20508;-68
2022/10/17 03:42:41;;;;;;;12.55;7.47;;;16.60;99.90;;;;;;5056088;28;20052;-68
2022/10/17 03:45:07;;;;;;;13.90;8.10;;;16.70;99.90;;;;;;5056466;28;20024;-68
2022/10/17 03:47:34;;;;;;;15.43;7.57;;;16.80;99.90;;;;;;5056280;28;20489;-68
2022/10/17 03:50:00;;;;;;;10.75;7.05;;;16.80;99.90;;;;;;5073936;28;20074;-68
2022/10/17 03:52:28;;;;;;;11.43;7.05;;;16.90;99.90;;;;;;5056170;28;20017;-68
2022/10/17 03:54:54;;;;;;;12.30;7.50;;;16.90;99.90;;;;;;5038883;28;20070;-68
2022/10/17 03:57:20;;;;;;;15.45;7.15;;;17.00;99.90;;;;;;5056275;28;20036;-68
2022/10/17 03:59:46;;;;;;;17.90;7.40;;;17.00;99.90;;;;;;5056049;28;20456;-68
2022/10/17 04:02:16;;;;;;;14.07;7.38;;;17.00;99.90;;;;;;5056000;28;20079;-68
2022/10/17 04:04:42;;;;;;;13.77;7.30;;;17.10;99.90;;;;;;5055816;28;20047;-68
2022/10/17 04:07:08;;;;;;;11.93;7.65;;;17.10;99.90;;;;;;5055706;28;20028;-68
2022/10/17 04:09:38;;;;;;;11.52;6.88;;;17.10;99.90;;;;;;5055517;28;20029;-69
2022/10/17 04:12:07;;;;;;;15.88;6.85;;;17.20;99.90;;;;;;5055596;28;20024;-68
2022/10/17 04:14:36;;;;;;;10.32;7.00;;;17.20;99.90;;;;;;5073640;28;20024;-69
2022/10/17 04:17:03;;;;;;;16.70;7.30;;;17.30;99.90;;;;;;5055791;28;20025;-69
2022/10/17 04:19:30;;;;;;;13.57;6.22;;;17.30;99.90;;;;;;5055249;28;20029;-69
2022/10/17 04:21:55;;;;;;;12.10;6.82;;;17.40;99.90;;;;;;5055754;28;20055;-69
2022/10/17 04:24:21;;;;;;;12.35;6.55;;;17.30;99.90;;;;;;5054969;28;20358;-69
2022/10/17 04:27:02;;;;;;;8.77;6.72;;;17.30;99.90;;;;;;5055288;28;20036;-69
2022/10/17 04:29:30;;;;;;;7.43;6.22;;;17.40;99.90;;;;;;5038587;28;20043;-69
2022/10/17 04:32:14;;;;;;;9.43;6.50;;;17.40;99.90;;;;;;5055464;28;20039;-69
2022/10/17 04:34:50;;;;;;;8.38;6.38;;;17.50;99.90;;;;;;5055048;28;20059;-68
2022/10/17 04:37:17;;;;;;;9.80;6.25;;;17.40;99.90;;;;;;5055109;28;20106;-68
2022/10/17 04:39:45;;;;;;;14.25;5.95;;;17.40;99.90;;;;;;5054739;28;20032;-69
2022/10/17 04:42:11;;;;;;;14.70;6.13;;;17.50;99.90;;;;;;5055410;28;20469;-69
2022/10/17 04:44:36;;;;;;;11.00;5.88;;;17.50;99.90;;;;;;5054899;28;20052;-68
2022/10/17 04:47:03;;;;;;;13.85;6.85;;;17.50;99.90;;;;;;5055148;28;20032;-69
2022/10/17 04:49:28;;;;;;;16.52;6.88;;;17.60;99.90;;;;;;5038207;28;20025;-68
2022/10/17 04:51:59;;;;;;;15.02;6.72;;;17.60;99.90;;;;;;5055015;28;20134;-68
2022/10/17 04:54:51;;;;;;;12.60;6.38;;;17.50;99.90;;;;;;5068419;28;20068;-69
2022/10/17 04:57:18;;;;;;;9.50;6.00;;;17.50;99.90;;;;;;5055330;28;20425;-69
2022/10/17 05:00:00;;;;;;;12.38;5.80;;;17.50;99.90;;;;;;5054631;28;20431;-68
2022/10/17 05:02:45;;;;;;;20.17;6.85;;;17.60;99.90;;;;;;5072790;28;20044;-68
2022/10/17 05:05:11;;;;;;;12.45;6.57;;;17.70;99.90;;;;;;5054792;28;20070;-68
2022/10/17 05:07:40;;;;;;;19.98;6.85;;;17.60;99.90;;;;;;5054377;28;20408;-69
2022/10/17 05:10:12;;;;;;;10.68;5.20;;;17.50;99.90;;;;;;5072543;28;20109;-69
2022/10/17 05:12:40;;;;;;;9.10;5.95;;;17.60;99.90;;;;;;5054823;28;20394;-69
2022/10/17 05:15:06;;;;;;;12.32;5.82;;;17.60;99.90;;;;;;5054735;28;20033;-69
2022/10/17 05:17:33;;;;;;;15.68;6.10;;;17.80;99.90;;;;;;5038166;28;20082;-68
2022/10/17 05:19:59;;;;;;;13.32;5.25;;;17.90;99.90;;;;;;5072421;28;20488;-69
2022/10/17 05:22:24;;;;;;;10.13;5.93;;;17.80;99.90;;;;;;5054313;28;20120;-69
2022/10/17 05:24:50;;;;;;;10.40;5.60;;;17.90;99.90;;;;;;5054381;28;20477;-69
2022/10/17 05:27:17;;;;;;;16.02;5.28;;;17.80;99.90;;;;;;5054752;28;20123;-69
2022/10/17 05:29:44;;;;;;;13.40;5.70;;;17.90;99.90;;;;;;5054059;28;20056;-69
2022/10/17 05:32:17;;;;;;;11.00;5.70;;;17.90;99.90;;;;;;5054687;28;20074;-69
2022/10/17 05:34:44;;;;;;;7.68;5.30;;;17.90;99.90;;;;;;5054401;28;20040;-69
2022/10/17 05:37:10;;;;;;;8.98;5.55;;;17.90;99.90;;;;;;5054105;28;20419;-68
2022/10/17 05:39:36;;;;;;;10.07;5.25;;;17.80;99.90;;;;;;5056180;28;20029;-69
2022/10/17 05:42:03;;;;;;;11.93;5.05;;;17.80;99.90;;;;;;5058593;28;20043;-69
2022/10/17 05:44:29;;;;;;;15.00;5.40;;;17.90;99.90;;;;;;5058418;28;20024;-69
2022/10/17 05:46:58;;;;;;;10.27;5.68;;;17.90;99.90;;;;;;5042410;28;20493;-69
2022/10/17 05:49:26;;;;;;;12.55;5.32;;;17.90;99.90;;;;;;5058626;28;20107;-69
2022/10/17 05:51:52;;;;;;;12.10;5.20;;;17.90;99.90;;;;;;5058251;28;20040;-69
2022/10/17 05:54:18;;;;;;;9.93;5.07;;;18.00;99.90;;;;;;5058418;28;20024;-69
2022/10/17 05:56:44;;;;;;;8.93;4.88;;;18.00;99.90;;;;;;5057969;28;20051;-68
2022/10/17 05:59:10;;;;;;;13.00;5.32;;;18.00;99.90;;;;;;5058207;28;20025;-69
2022/10/17 06:01:49;;;;;;;12.35;5.38;;;18.10;99.90;;;;;;5058070;28;20044;-69
2022/10/17 06:04:15;;;;;;;8.20;5.55;;;18.20;99.90;;;;;;5058192;28;20033;-68
2022/10/17 06:06:42;;;;;;;10.00;5.45;;;18.30;99.90;;;;;;5057639;28;20033;-69
2022/10/17 06:09:09;;;;;;;11.18;5.28;;;18.30;99.90;;;;;;5057870;28;20492;-69
2022/10/17 06:11:38;;;;;;;12.65;5.43;;;18.20;99.90;;;;;;5057493;28;20021;-69
2022/10/17 06:14:05;;;;;;;10.85;5.43;;;18.20;99.90;;;;;;5058225;28;20052;-69
2022/10/17 06:16:31;;;;;;;10.55;5.65;;;18.10;99.90;;;;;;5057856;28;20066;-69
2022/10/17 06:18:56;;;;;;;18.85;5.85;;;18.10;99.90;;;;;;5075342;28;20074;-69
2022/10/17 06:21:25;;;;;;;12.13;5.63;;;18.00;99.90;;;;;;5057675;28;20063;-69
2022/10/17 06:23:57;;;;;;;12.00;5.90;;;18.10;99.90;;;;;;5057621;28;20052;-68
2022/10/17 06:26:28;;;;;;;12.18;5.53;;;18.10;99.90;;;;;;5057459;28;20024;-69
2022/10/17 06:28:54;;;;;;;10.55;6.30;;;18.10;99.90;;;;;;5057292;28;20370;-68
2022/10/17 06:31:20;;;;;;;9.65;6.03;;;18.10;99.90;;;;;;5075228;28;20024;-69
2022/10/17 06:33:46;;;;;;;12.95;6.50;;;18.10;99.90;;;;;;5057064;28;20029;-69
2022/10/17 06:36:13;;;;;;;13.25;5.80;;;18.10;99.90;;;;;;5057514;28;20017;-68
2022/10/17 06:38:40;;;;;;;11.40;6.40;;;18.00;99.90;;;;;;5057536;28;20485;-68
2022/10/17 06:41:15;;;;;;;11.13;6.80;;;18.10;99.90;;;;;;5057387;28;20048;-69
2022/10/17 06:43:45;;;;;;;12.93;6.10;;;18.00;99.90;;;;;;5057461;28;20012;-68
2022/10/17 06:46:43;;;;;;;16.10;6.82;;;18.10;99.90;;;;;;5026828;28;20045;-68
2022/10/17 06:49:09;;;;;;;10.88;6.55;;;18.10;99.90;;;;;;5050640;28;20029;-69
2022/10/17 06:51:50;;;;;;;16.38;6.95;;;17.90;99.90;;;;;;5048962;28;20021;-68
2022/10/17 06:54:20;;;;;;;17.88;6.82;;;17.90;99.90;;;;;;5054020;28;20037;-68
2022/10/17 06:56:46;;;;;;;23.05;6.70;;;17.70;99.90;;;;;;5068444;28;20024;-68
2022/10/17 06:59:31;;;;;;;7.00;5.20;;;17.60;99.90;;;;;;5061870;28;20405;-68
2022/10/17 07:02:07;;;;;;;11.10;6.63;;;17.40;99.90;;;;;;5043051;28;20036;-68
2022/10/17 07:04:33;;;;;;;9.45;5.40;;;17.40;99.90;;;;;;5055248;28;20089;-69
2022/10/17 07:07:01;;;;;;;12.70;6.78;;;17.40;99.90;;;;;;5056039;28;20448;-69
2022/10/17 07:09:29;;;;;;;12.93;6.20;;;17.30;99.90;;;;;;5039025;28;20487;-69
2022/10/17 07:11:57;;;;;;;9.18;6.57;;;17.30;99.90;;;;;;5055855;28;20024;-70
2022/10/17 07:14:22;;;;;;;17.35;7.25;;;17.20;99.90;;;;;;5055713;28;20025;-68
2022/10/17 07:16:49;;;;;;;15.40;8.02;;;17.20;99.90;;;;;;5054467;28;20107;-69
2022/10/17 07:19:21;;;;;;;14.52;8.70;;;17.20;99.90;;;;;;5047772;28;20477;-69
2022/10/17 07:21:48;;;;;;;17.02;8.18;;;17.20;99.90;;;;;;5055370;28;20037;-68
2022/10/17 07:24:14;;;;;;;12.93;7.05;;;17.30;99.90;;;;;;5072754;28;20025;-68
2022/10/17 07:26:45;;;;;;;10.13;6.97;;;17.40;99.90;;;;;;5057401;28;20047;-68
2022/10/17 07:29:12;;;;;;;19.77;7.72;;;17.40;99.90;;;;;;5055184;28;20025;-68
2022/10/17 07:31:58;;;;;;;12.63;6.63;;;17.50;99.90;;;;;;5071462;28;20041;-68
2022/10/17 07:34:29;;;;;;;14.43;7.45;;;17.30;99.90;;;;;;5053760;28;20017;-68
2022/10/17 07:36:55;;;;;;;15.75;8.30;;;17.20;99.90;;;;;;5052350;28;20381;-68
2022/10/17 07:39:21;;;;;;;14.73;7.57;;;17.20;99.90;;;;;;5051766;28;20025;-68
2022/10/17 07:41:50;;;;;;;15.40;7.38;;;17.10;99.90;;;;;;5049983;28;20029;-68
2022/10/17 07:44:17;;;;;;;12.88;6.85;;;17.00;99.90;;;;;;5044640;28;20044;-68
2022/10/17 07:46:47;;;;;;;11.95;7.50;;;17.00;99.90;;;;;;5047332;28;20037;-68
2022/10/17 07:49:13;;;;;;;14.35;7.65;;;17.00;99.90;;;;;;5063068;28;20031;-68
2022/10/17 07:51:41;;;;;;;16.17;7.72;;;17.10;99.90;;;;;;5055645;28;20044;-68
2022/10/17 07:54:06;;;;;;;13.48;7.47;;;17.00;99.90;;;;;;5072843;28;20028;-68
2022/10/17 07:56:32;;;;;;;16.27;7.32;;;17.00;99.90;;;;;;5073776;28;20556;-68
2022/10/17 07:58:58;;;;;;;13.00;7.30;;;17.00;99.90;;;;;;5072781;28;20539;-68
2022/10/17 08:01:24;;;;;;;13.43;7.60;;;17.10;99.90;;;;;;5071444;28;20049;-68
2022/10/17 08:03:50;;;;;;;14.43;8.73;;;17.00;99.90;;;;;;5049457;28;20032;-68
2022/10/17 08:06:16;;;;;;;13.93;7.32;;;17.10;99.90;;;;;;5072638;28;20047;-68
2022/10/17 08:08:42;;;;;;;10.82;7.28;;;17.10;99.90;;;;;;5072219;28;20024;-68
2022/10/17 08:11:11;;;;;;;12.02;6.85;;;17.10;99.90;;;;;;5069292;28;20151;-68
2022/10/17 08:13:37;;;;;;;11.38;6.63;;;17.10;99.90;;;;;;5072621;28;20038;-68
2022/10/17 08:16:06;;;;;;;13.23;7.65;;;17.10;99.90;;;;;;5066437;28;20460;-68
2022/10/17 08:18:33;;;;;;;17.10;7.40;;;17.10;99.90;;;;;;5069305;28;20024;-68
2022/10/17 08:21:00;;;;;;;12.80;7.18;;;17.20;99.90;;;;;;5063888;28;20062;-68
2022/10/17 08:23:27;;;;;;;15.35;7.75;;;17.10;99.90;;;;;;5070733;28;20527;-68
2022/10/17 08:25:52;;;;;;;12.90;7.35;;;17.30;99.90;;;;;;5070692;28;20032;-68
2022/10/17 08:28:18;;;;;;;23.20;6.95;;;17.20;99.90;;;;;;5072587;28;20485;-68
2022/10/17 08:30:44;;;;;;;14.20;6.97;;;17.20;99.90;;;;;;5066190;28;20032;-68
2022/10/17 08:33:09;;;;;;;18.80;6.90;;;17.10;99.90;;;;;;5066612;28;20023;-68
2022/10/17 08:35:35;;;;;;;9.40;6.05;;;17.00;99.90;;;;;;5067429;28;20051;-68
2022/10/17 08:38:01;;;;;;;10.68;5.72;;;17.00;99.90;;;;;;5049789;28;20049;-68
2022/10/17 08:40:30;;;;;;;14.43;6.70;;;17.00;99.90;;;;;;5076833;28;20044;-69
2022/10/17 08:43:04;;;;;;;16.50;6.18;;;17.00;99.90;;;;;;5085216;28;20027;-68
2022/10/17 08:45:54;;;;;;;11.50;6.72;;;17.00;99.90;;;;;;5071493;28;20051;-68
2022/10/17 08:48:24;;;;;;;14.68;5.95;;;17.00;99.90;;;;;;5073060;28;20133;-69
2022/10/17 08:51:00;;;;;;;11.00;5.63;;;16.90;99.90;;;;;;5080193;28;20024;-69
2022/10/17 08:53:37;;;;;;;16.65;6.28;;;17.00;99.90;;;;;;5071576;28;20496;-68
2022/10/17 08:56:18;;;;;;;7.82;5.28;;;17.10;99.90;;;;;;5069661;28;20025;-69
2022/10/17 08:58:44;;;;;;;12.32;6.00;;;17.00;99.90;;;;;;5069496;28;20161;-72
2022/10/17 09:01:35;;;;;;;10.45;5.97;;;17.00;99.90;;;;;;5071719;28;20529;-68
2022/10/17 09:04:16;;;;;;;8.10;5.38;;;17.10;99.90;;;;;;5070664;28;20029;-69
2022/10/17 09:06:53;;;;;;;12.82;5.97;;;17.10;99.90;;;;;;5065135;28;20036;-69
2022/10/17 09:09:30;;;;;;;8.07;5.40;;;17.00;99.90;;;;;;5064976;28;20037;-69
2022/10/17 09:12:02;;;;;;;11.43;5.22;;;16.90;99.90;;;;;;5065444;28;20377;-68
2022/10/17 09:14:55;;;;;;;11.25;5.65;;;16.90;99.90;;;;;;5047494;28;20393;-69
2022/10/17 09:17:21;;;;;;;9.95;5.05;;;17.00;99.90;;;;;;5050081;28;20078;-69
2022/10/17 09:20:03;;;;;;;8.73;5.00;;;17.00;99.90;;;;;;5051643;28;20044;-68
2022/10/17 09:22:55;;;;;;;8.85;5.50;;;17.00;99.90;;;;;;5047720;28;20378;-69
2022/10/17 09:25:22;;;;;;;10.05;5.55;;;17.20;99.90;;;;;;5062665;28;20381;-69
2022/10/17 09:28:03;;;;;;;12.30;5.57;;;17.20;99.90;;;;;;5067807;28;20035;-68
2022/10/17 09:30:42;;;;;;;8.65;5.22;;;17.10;99.90;;;;;;5064001;28;20075;-69
2022/10/17 09:33:19;;;;;;;11.50;4.93;;;17.20;99.90;;;;;;5070833;28;20048;-69
2022/10/17 09:35:46;;;;;;;10.07;5.72;;;17.20;99.90;;;;;;5069735;28;20366;-69
2022/10/17 09:38:21;;;;;;;11.55;4.45;;;17.30;99.90;;;;;;5067906;28;20199;-69
2022/10/17 09:40:56;;;;;;;6.45;4.70;;;17.20;99.90;;;;;;5054534;28;20075;-69
2022/10/17 09:43:23;;;;;;;8.55;4.97;;;17.20;99.90;;;;;;5068650;28;20028;-69
2022/10/17 09:46:16;;;;;;;9.25;5.20;;;17.20;99.90;;;;;;5068470;28;20025;-69
2022/10/17 09:48:59;;;;;;;6.90;4.93;;;17.10;99.90;;;;;;5063711;28;20028;-68
2022/10/17 09:51:25;;;;;;;11.18;5.65;;;17.10;99.90;;;;;;5068886;28;20059;-69
2022/10/17 09:53:58;;;;;;;10.98;6.00;;;17.20;99.90;;;;;;5071583;28;20453;-69
2022/10/17 09:56:24;;;;;;;14.57;6.68;;;17.20;99.90;;;;;;5051374;28;20037;-69
2022/10/17 09:58:54;;;;;;;9.73;6.20;;;17.30;99.90;;;;;;5071566;28;20025;-68
2022/10/17 10:01:27;;;;;;;8.05;6.25;;;17.30;99.90;;;;;;5070961;28;20090;-68
2022/10/17 10:04:14;;;;;;;9.90;5.30;;;17.50;99.90;;;;;;5040636;28;20020;-68
2022/10/17 10:06:59;;;;;;;9.10;4.65;;;17.40;99.90;;;;;;5070822;28;20086;-68
2022/10/17 10:09:29;;;;;;;9.50;5.78;;;17.30;99.90;;;;;;5071259;28;20040;-68
2022/10/17 10:11:56;;;;;;;9.32;5.68;;;17.30;99.90;;;;;;5070792;28;20027;-68
2022/10/17 10:14:38;;;;;;;8.27;5.95;;;17.30;99.90;;;;;;5071410;28;20032;-68
2022/10/17 10:17:32;;;;;;;14.73;6.85;;;17.20;99.90;;;;;;5071042;28;20029;-68
2022/10/17 10:19:58;;;;;;;11.40;5.75;;;17.30;99.90;;;;;;5062698;28;20087;-68
2022/10/17 10:22:24;;;;;;;13.23;5.97;;;17.60;99.90;;;;;;5066222;28;20435;-68
2022/10/17 10:25:16;;;;;;;10.43;5.28;;;17.70;99.90;;;;;;5048523;28;20086;-68
2022/10/17 10:27:45;;;;;;;7.72;5.40;;;17.50;99.90;;;;;;5073941;28;20070;-68
2022/10/17 10:30:23;;;;;;;12.45;6.32;;;17.50;99.90;;;;;;5071373;28;20105;-73
2022/10/17 10:32:49;;;;;;;11.50;6.25;;;17.50;99.90;;;;;;5071865;28;20032;-68
2022/10/17 10:35:19;;;;;;;9.88;6.13;;;17.30;99.90;;;;;;5074553;28;20070;-68
2022/10/17 10:37:49;;;;;;;10.65;6.07;;;17.30;99.90;;;;;;5075171;28;20462;-68
2022/10/17 10:40:53;;;;;;;10.93;6.05;;;17.40;99.90;;;;;;5074489;28;20119;-68
2022/10/17 10:43:33;;;;;;;11.02;6.25;;;17.30;99.90;;;;;;4993466;28;20034;-68
2022/10/17 10:45:59;;;;;;;8.45;5.85;;;17.20;99.90;;;;;;5043602;28;20033;-68
2022/10/17 10:48:34;;;;;;;11.48;6.15;;;17.20;99.90;;;;;;5053293;28;20808;-68
2022/10/17 10:51:06;;;;;;;13.38;6.45;;;17.30;99.90;;;;;;5067875;28;20111;-68
2022/10/17 10:54:09;;;;;;;14.43;7.20;;;17.40;99.90;;;;;;5056941;28;20104;-68
2022/10/17 10:56:37;;;;;;;;;;;17.80;99.90;;;;;;5063976;28;20048;-68
2022/10/17 10:59:18;;;;;;;13.70;7.10;;;17.80;99.90;;;;;;5074508;28;19995;-68
2022/10/17 11:02:03;;;;;;;10.85;6.60;;;17.90;99.90;;;;;;5074868;28;20071;-68
2022/10/17 11:04:38;;;;;;;8.75;6.03;;;18.10;99.90;;;;;;5066680;28;20025;-69
2022/10/17 11:07:24;;;;;;;9.05;6.95;;;18.10;99.90;;;;;;5074584;28;20020;-68
2022/10/17 11:09:58;;;;;;;9.00;6.28;;;18.20;99.90;;;;;;5068333;28;20085;-68
2022/10/17 11:12:40;;;;;;;7.32;5.70;;;18.10;99.90;;;;;;5069664;28;20516;-68
2022/10/17 11:15:31;;;;;;;11.13;5.15;;;18.00;99.90;;;;;;5074646;28;20388;-69
2022/10/17 11:17:59;;;;;;;8.52;5.60;;;18.20;99.90;;;;;;5074424;28;20033;-68
2022/10/17 11:20:47;;;;;;;10.15;5.45;;;18.10;99.90;;;;;;5074209;28;20072;-70
2022/10/17 11:23:51;;;;;;;12.60;5.00;;;18.30;99.90;;;;;;5062497;28;20033;-69
2022/10/17 11:26:25;;;;;;;7.32;5.07;;;18.40;99.90;;;;;;5070018;28;20040;-68
2022/10/17 11:29:05;;;;;;;6.70;4.80;;;18.40;99.90;;;;;;5074237;28;20047;-68
2022/10/17 11:31:36;;;;;;;7.28;5.38;;;18.50;99.90;;;;;;5074225;28;20465;-68
2022/10/17 11:34:18;;;;;;;12.93;4.82;;;18.40;99.90;;;;;;5074498;28;20024;-68
2022/10/17 11:36:48;;;;;;;6.47;3.80;;;18.30;99.90;;;;;;5061548;28;20112;-68
2022/10/17 11:39:21;;;;;;;12.05;4.10;;;18.30;99.90;;;;;;5073632;28;20025;-68
2022/10/17 11:41:53;;;;;;;7.03;4.50;;;18.10;99.90;;;;;;5043420;28;20093;-68
2022/10/17 11:44:39;;;;;;;6.53;4.25;;;18.30;99.90;;;;;;5074338;28;20089;-68
2022/10/17 11:47:29;;;;;;;8.30;5.05;;;18.40;99.90;;;;;;5062975;28;20028;-68
2022/10/17 11:50:10;;;;;;;7.20;4.03;;;18.30;99.90;;;;;;5070413;28;20035;-68
2022/10/17 11:53:02;;;;;;;6.68;4.55;;;18.10;99.90;;;;;;5074003;28;20149;-67
2022/10/17 11:55:29;;;;;;;9.23;4.85;;;18.30;99.90;;;;;;5047839;28;20427;-68
2022/10/17 11:58:09;;;;;;;8.20;5.03;;;18.40;99.90;;;;;;5074078;28;20052;-68
2022/10/17 12:00:46;;;;;;;6.70;4.65;;;18.20;99.90;;;;;;5061591;28;20050;-68
2022/10/17 12:03:32;;;;;;;8.38;4.25;;;18.00;99.90;;;;;;5073437;28;20040;-68
2022/10/17 12:06:16;;;;;;;10.05;4.75;;;18.10;99.90;;;;;;5073990;28;20465;-68
2022/10/17 12:09:21;;;;;;;8.43;4.55;;;18.20;99.90;;;;;;5071307;28;20021;-68
2022/10/17 12:11:54;;;;;;;9.80;5.22;;;18.00;99.90;;;;;;5058559;28;20037;-68
2022/10/17 12:14:45;;;;;;;10.85;5.28;;;18.10;99.90;;;;;;5073023;28;20105;-68
2022/10/17 12:17:31;;;;;;;9.45;4.80;;;18.20;99.90;;;;;;5073390;28;20032;-68
2022/10/17 12:20:15;;;;;;;12.65;5.40;;;18.20;99.90;;;;;;5073489;28;20059;-69
2022/10/17 12:22:51;;;;;;;11.13;5.07;;;18.60;99.90;;;;;;5073318;28;20020;-68
2022/10/17 12:25:31;;;;;;;10.07;4.85;;;18.90;99.90;;;;;;5073154;28;20428;-68
2022/10/17 12:28:05;;;;;;;8.35;4.85;;;18.60;99.90;;;;;;5073264;28;20081;-68
2022/10/17 12:30:32;;;;;;;12.93;5.07;;;18.50;99.90;;;;;;5073024;28;20532;-68
2022/10/17 12:33:05;;;;;;;7.22;4.93;;;18.50;99.90;;;;;;5073171;28;20023;-68
2022/10/17 12:35:33;;;;;;;9.13;5.30;;;18.50;99.90;;;;;;5055238;28;20028;-68
2022/10/17 12:38:01;;;;;;;7.13;4.93;;;18.30;99.90;;;;;;5072982;28;20031;-68
2022/10/17 12:40:36;;;;;;;12.40;5.38;;;18.40;99.90;;;;;;5054987;28;20029;-68
2022/10/17 12:43:14;;;;;;;8.05;4.90;;;18.20;99.90;;;;;;5073033;28;20032;-68
2022/10/17 12:45:53;;;;;;;11.27;6.45;;;18.30;99.90;;;;;;5073152;28;20081;-68
2022/10/17 12:48:37;;;;;;;8.88;5.35;;;18.50;99.90;;;;;;5072547;28;20074;-68
2022/10/17 12:51:04;;;;;;;14.20;5.25;;;18.70;99.90;;;;;;5072924;28;20021;-68
2022/10/17 12:53:47;;;;;;;12.05;5.82;;;18.60;99.90;;;;;;5072651;28;20071;-68
2022/10/17 12:56:19;;;;;;;8.07;5.70;;;18.70;99.90;;;;;;5073007;28;20413;-68
2022/10/17 12:58:47;;;;;;;11.68;5.70;;;18.90;99.90;;;;;;5073001;28;20079;-68
2022/10/17 13:01:44;;;;;;;9.52;6.13;;;18.90;99.90;;;;;;5072757;28;20036;-68
2022/10/17 13:04:10;;;;;;;9.13;5.93;;;19.00;99.90;;;;;;5045887;28;20039;-68
2022/10/17 13:06:43;;;;;;;10.95;6.00;;;19.00;99.90;;;;;;5072215;28;20047;-68
2022/10/17 13:09:32;;;;;;;9.55;5.63;;;18.90;99.90;;;;;;5072877;28;20107;-68